Terminal Aerodrome Forecast
Issued by NWS

Home | Current Version | Previous Version | Text Only | Print | Product List | Glossary On
Versions: 1 2 3 4 5 6 7 8 9 10 11 12 13 14 15 16 17 18 19
802
FTUS44 KEPZ 261120
TAFLRU
TAF
KLRU 261120Z 2612/2712 13008KT P6SM SCT050 BKN100
     FM262000 13010KT P6SM VCTS SCT050CB BKN100
      TEMPO 2700/2704 VRB30G45KT 1SM TSRA BKN030CB
     FM270800 07007KT P6SM BKN100=

USA.gov is the U.S. government's official web portal to all federal, state and local government web resources and services.